Time;durP1;ratioP1;P1;durP2;ratioP2;P2;SDS_P1;SDS_P2;PMS_P1;PMS_P2;Temp;Humidity;BMP_temperature;BMP_pressure;BME280_temperature;BME280_humidity;BME280_pressure;Samples;Min_cycle;Max_cycle;Signal;HPM_P1;HPM_P2
2023/08/09 00:02:19;;;;;;;5.00;2.90;;;13.70;99.90;;;;;;5060408;28;20176;-83
2023/08/09 00:04:45;;;;;;;3.47;2.57;;;13.70;99.90;;;;;;5060339;28;20203;-83
2023/08/09 00:07:11;;;;;;;4.57;2.60;;;13.70;99.90;;;;;;5077328;28;20245;-85
2023/08/09 00:09:36;;;;;;;4.80;2.73;;;13.60;99.90;;;;;;5059852;28;20196;-83
2023/08/09 00:12:03;;;;;;;4.87;2.67;;;13.60;99.90;;;;;;5059926;28;20184;-83
2023/08/09 00:14:29;;;;;;;4.90;2.67;;;13.60;99.90;;;;;;5059911;28;20185;-83
2023/08/09 00:16:54;;;;;;;5.20;2.90;;;13.60;99.90;;;;;;5077675;28;20192;-83
2023/08/09 00:19:20;;;;;;;3.90;2.43;;;13.60;99.90;;;;;;5059669;28;20173;-83
2023/08/09 00:21:46;;;;;;;2.73;2.53;;;13.60;99.90;;;;;;5077632;28;20206;-83
2023/08/09 00:24:12;;;;;;;3.27;2.70;;;13.60;99.90;;;;;;5077948;28;20173;-83
2023/08/09 00:26:37;;;;;;;4.40;2.53;;;13.60;99.90;;;;;;5078247;28;20822;-83
2023/08/09 00:29:03;;;;;;;4.20;2.53;;;13.50;99.90;;;;;;5059652;28;20244;-83
2023/08/09 00:31:29;;;;;;;3.77;2.53;;;13.50;99.90;;;;;;5077716;28;20198;-83
2023/08/09 00:33:55;;;;;;;4.73;2.43;;;13.50;99.90;;;;;;5059263;28;20276;-83
2023/08/09 00:36:20;;;;;;;4.13;3.00;;;13.50;99.90;;;;;;5059941;28;20253;-83
2023/08/09 00:38:46;;;;;;;3.50;2.60;;;13.50;99.90;;;;;;5078112;28;20173;-83
2023/08/09 00:41:12;;;;;;;3.50;2.60;;;13.50;99.90;;;;;;5059864;28;20165;-83
2023/08/09 00:43:38;;;;;;;4.57;3.20;;;13.40;99.90;;;;;;5059575;28;20236;-83
2023/08/09 00:46:04;;;;;;;3.90;2.93;;;13.40;99.90;;;;;;5059743;28;20177;-83
2023/08/09 00:48:30;;;;;;;4.27;3.10;;;13.40;99.90;;;;;;5078306;28;20193;-83
2023/08/09 00:50:55;;;;;;;6.07;3.30;;;13.40;99.90;;;;;;5078139;28;20647;-84
2023/08/09 00:53:21;;;;;;;4.03;3.00;;;13.40;99.90;;;;;;5059804;28;20177;-83
2023/08/09 00:55:47;;;;;;;3.53;2.90;;;13.50;99.90;;;;;;5059223;28;20208;-83
2023/08/09 00:58:13;;;;;;;5.37;2.80;;;13.50;99.90;;;;;;5058861;28;20201;-84
2023/08/09 01:00:39;;;;;;;4.50;3.00;;;13.50;99.90;;;;;;5076942;28;20260;-83
2023/08/09 01:03:04;;;;;;;3.03;2.50;;;13.50;99.90;;;;;;5059274;28;20226;-83
2023/08/09 01:06:01;;;;;;;3.43;3.00;;;13.40;99.90;;;;;;5077535;28;20185;-83
2023/08/09 01:08:52;;;;;;;4.10;3.03;;;13.40;99.90;;;;;;5055909;28;20663;-83
2023/08/09 01:11:51;;;;;;;2.83;2.53;;;13.40;99.90;;;;;;5074971;28;20260;-83
2023/08/09 01:14:20;;;;;;;3.23;2.63;;;13.50;99.90;;;;;;5060130;28;20180;-83
2023/08/09 01:16:46;;;;;;;3.60;2.60;;;13.40;99.90;;;;;;5078112;28;20208;-82
2023/08/09 01:19:45;;;;;;;3.47;2.70;;;13.40;99.90;;;;;;5060269;28;20168;-84
2023/08/09 01:22:15;;;;;;;3.20;2.83;;;13.50;99.90;;;;;;5060713;28;20552;-84
2023/08/09 01:24:42;;;;;;;2.70;2.50;;;13.40;99.90;;;;;;5060496;28;20168;-83
2023/08/09 01:27:08;;;;;;;4.20;2.80;;;13.40;99.90;;;;;;5059964;28;20211;-83
2023/08/09 01:29:35;;;;;;;2.87;2.67;;;13.40;99.90;;;;;;5060493;28;20169;-84
2023/08/09 01:32:00;;;;;;;3.00;2.60;;;13.40;99.90;;;;;;5059706;28;20183;-84
2023/08/09 01:34:26;;;;;;;3.37;2.63;;;13.40;99.90;;;;;;5059549;28;20173;-83
2023/08/09 01:36:52;;;;;;;3.03;2.73;;;13.40;99.90;;;;;;5059600;28;20201;-83
2023/08/09 01:39:25;;;;;;;4.13;2.70;;;13.40;99.90;;;;;;5059088;28;20182;-83
2023/08/09 01:41:51;;;;;;;2.90;2.53;;;13.50;99.90;;;;;;5060232;28;20222;-83
2023/08/09 01:44:17;;;;;;;2.70;2.50;;;13.40;99.90;;;;;;5078788;28;20256;-84
2023/08/09 01:46:44;;;;;;;3.40;2.67;;;13.50;99.90;;;;;;5077938;28;20216;-84
2023/08/09 01:49:15;;;;;;;3.93;3.00;;;13.50;99.90;;;;;;5059723;28;20196;-83
2023/08/09 01:51:41;;;;;;;3.13;2.80;;;13.50;99.90;;;;;;5060936;28;20173;-85
2023/08/09 01:54:07;;;;;;;2.83;2.53;;;13.50;99.90;;;;;;5060559;28;20199;-83
2023/08/09 01:56:34;;;;;;;3.03;2.50;;;13.60;99.90;;;;;;5060485;28;20284;-84
2023/08/09 01:59:00;;;;;;;3.10;2.60;;;13.60;99.90;;;;;;5060972;28;20184;-84
2023/08/09 02:01:26;;;;;;;3.00;2.70;;;13.60;99.90;;;;;;5079048;28;20176;-84
2023/08/09 02:03:53;;;;;;;3.40;3.10;;;13.60;99.90;;;;;;5061278;28;20203;-83
2023/08/09 02:06:18;;;;;;;3.03;2.67;;;13.60;99.90;;;;;;5058850;28;20170;-83
2023/08/09 02:08:44;;;;;;;2.60;2.40;;;13.60;99.90;;;;;;5061569;28;20206;-82
2023/08/09 02:11:10;;;;;;;3.30;2.77;;;13.70;99.90;;;;;;5061966;28;20198;-84
2023/08/09 02:13:35;;;;;;;3.00;2.70;;;13.70;99.90;;;;;;5061696;28;20173;-83
2023/08/09 02:16:04;;;;;;;3.83;3.10;;;13.70;99.90;;;;;;5079927;28;20212;-83
2023/08/09 02:18:30;;;;;;;2.90;2.60;;;13.70;99.90;;;;;;5062099;28;20236;-84
2023/08/09 02:20:58;;;;;;;3.07;2.77;;;13.70;99.90;;;;;;5080924;28;20543;-85
2023/08/09 02:23:25;;;;;;;3.83;2.53;;;13.70;99.90;;;;;;5062514;28;20188;-85
2023/08/09 02:25:53;;;;;;;2.97;2.60;;;13.70;99.90;;;;;;5063736;28;20549;-83
2023/08/09 02:28:18;;;;;;;3.10;2.80;;;13.70;99.90;;;;;;5062941;28;20204;-83
2023/08/09 02:30:45;;;;;;;3.13;2.80;;;13.70;99.90;;;;;;5063688;28;20229;-83
2023/08/09 02:33:11;;;;;;;3.23;2.93;;;13.70;99.90;;;;;;5064378;28;20188;-84
2023/08/09 02:35:55;;;;;;;2.90;2.70;;;13.70;99.90;;;;;;5061989;28;20303;-83
2023/08/09 02:38:23;;;;;;;3.10;2.80;;;13.70;99.90;;;;;;5081813;28;20212;-83
2023/08/09 02:40:49;;;;;;;3.50;3.03;;;13.80;99.90;;;;;;5062322;28;20173;-84
2023/08/09 02:43:19;;;;;;;3.10;2.80;;;13.80;99.90;;;;;;5057910;28;20173;-84
2023/08/09 02:45:46;;;;;;;4.67;3.40;;;13.80;99.90;;;;;;5057465;28;20229;-83
2023/08/09 02:48:12;;;;;;;3.10;2.80;;;13.80;99.90;;;;;;5057339;28;20197;-83
2023/08/09 02:50:39;;;;;;;3.47;2.80;;;13.70;99.90;;;;;;5057298;28;20180;-82
2023/08/09 02:53:05;;;;;;;3.90;3.07;;;13.80;99.90;;;;;;5057338;28;20177;-82
2023/08/09 02:55:32;;;;;;;3.87;3.00;;;13.80;99.90;;;;;;5057298;28;20200;-83
2023/08/09 02:57:59;;;;;;;3.10;2.90;;;13.80;99.90;;;;;;5075699;28;20272;-84
2023/08/09 03:00:25;;;;;;;3.10;2.80;;;13.90;99.90;;;;;;5057623;28;20173;-83
2023/08/09 03:02:51;;;;;;;3.43;3.13;;;13.80;99.90;;;;;;5057166;28;20230;-82
2023/08/09 03:05:17;;;;;;;3.80;2.87;;;13.80;99.90;;;;;;5057639;28;20219;-83
2023/08/09 03:07:43;;;;;;;3.13;2.83;;;13.90;99.90;;;;;;5056706;28;20268;-83
2023/08/09 03:10:09;;;;;;;3.00;2.80;;;13.90;99.90;;;;;;5057519;28;20223;-84
2023/08/09 03:12:35;;;;;;;3.90;3.00;;;13.90;99.90;;;;;;5056594;28;20751;-83
2023/08/09 03:15:01;;;;;;;3.40;3.10;;;13.90;99.90;;;;;;5074881;28;20211;-85
2023/08/09 03:17:27;;;;;;;3.50;3.20;;;13.90;99.90;;;;;;5056886;28;20203;-84
2023/08/09 03:19:52;;;;;;;3.07;2.87;;;13.90;99.90;;;;;;5056866;28;20180;-83
2023/08/09 03:22:18;;;;;;;3.00;2.70;;;13.90;99.90;;;;;;5056518;28;20204;-82
2023/08/09 03:24:44;;;;;;;2.73;2.53;;;13.90;99.90;;;;;;5056990;28;20180;-83
2023/08/09 03:27:09;;;;;;;3.10;2.60;;;13.90;99.90;;;;;;5075120;28;20246;-83
2023/08/09 03:29:35;;;;;;;3.63;2.67;;;13.90;99.90;;;;;;5056773;28;20165;-82
2023/08/09 03:32:00;;;;;;;2.70;2.50;;;13.90;99.90;;;;;;5056890;28;20169;-82
2023/08/09 03:34:26;;;;;;;3.77;2.97;;;13.90;99.90;;;;;;5056873;28;20272;-83
2023/08/09 03:36:52;;;;;;;3.83;3.23;;;13.90;99.90;;;;;;5057227;28;20208;-82
2023/08/09 03:39:17;;;;;;;3.60;3.20;;;13.80;99.90;;;;;;5056988;28;20700;-83
2023/08/09 03:41:43;;;;;;;4.03;3.20;;;13.90;99.90;;;;;;5056793;28;20180;-82
2023/08/09 03:44:09;;;;;;;4.00;3.60;;;13.80;99.90;;;;;;5057081;28;20184;-83
2023/08/09 03:46:34;;;;;;;3.53;3.23;;;13.90;99.90;;;;;;5074820;28;20173;-83
2023/08/09 03:49:01;;;;;;;4.20;3.40;;;13.90;99.90;;;;;;5056624;28;20276;-82
2023/08/09 03:51:27;;;;;;;4.13;3.30;;;13.90;99.90;;;;;;5074892;28;20188;-83
2023/08/09 03:53:52;;;;;;;4.73;4.23;;;13.90;99.90;;;;;;5074840;28;20173;-83
2023/08/09 03:56:18;;;;;;;3.90;3.50;;;13.90;99.90;;;;;;5056662;28;20208;-82
2023/08/09 03:58:43;;;;;;;4.40;4.00;;;13.90;99.90;;;;;;5074296;28;20185;-82
2023/08/09 04:01:09;;;;;;;4.33;3.90;;;13.90;99.90;;;;;;5056307;28;20172;-83
2023/08/09 04:03:35;;;;;;;5.10;4.00;;;13.90;99.90;;;;;;5076790;28;20202;-83
2023/08/09 04:06:02;;;;;;;4.93;4.07;;;13.80;99.90;;;;;;5060529;28;20173;-82
2023/08/09 04:08:30;;;;;;;4.57;4.17;;;13.90;99.90;;;;;;5079504;28;20200;-82
2023/08/09 04:10:55;;;;;;;5.00;4.50;;;13.90;99.90;;;;;;5079719;28;20165;-83
2023/08/09 04:13:21;;;;;;;4.77;4.37;;;13.90;99.90;;;;;;5079161;28;20537;-82
2023/08/09 04:15:47;;;;;;;5.20;4.50;;;13.90;99.90;;;;;;5061194;28;20207;-83
2023/08/09 04:18:14;;;;;;;5.50;4.70;;;14.00;99.90;;;;;;5060920;28;20193;-84
2023/08/09 04:20:40;;;;;;;9.93;5.70;;;14.00;99.90;;;;;;5060521;28;20560;-83
2023/08/09 04:23:06;;;;;;;5.83;4.70;;;14.00;99.90;;;;;;5078836;28;20180;-83
2023/08/09 04:25:32;;;;;;;6.40;4.63;;;14.00;99.90;;;;;;5078255;28;20185;-83
2023/08/09 04:27:58;;;;;;;5.90;4.63;;;14.10;99.90;;;;;;5059517;28;20201;-83
2023/08/09 04:30:24;;;;;;;4.83;4.33;;;14.00;99.90;;;;;;5077646;28;20177;-84
2023/08/09 04:32:49;;;;;;;2.60;2.40;;;14.10;99.90;;;;;;5058485;28;20288;-84
2023/08/09 04:35:15;;;;;;;1.57;1.20;;;14.10;99.90;;;;;;5076751;28;20248;-82
2023/08/09 04:37:40;;;;;;;1.10;1.00;;;14.10;99.90;;;;;;5058990;28;20200;-83
2023/08/09 04:40:10;;;;;;;1.10;1.00;;;14.00;99.90;;;;;;5058526;28;20169;-83
2023/08/09 04:42:43;;;;;;;1.00;0.90;;;13.90;99.90;;;;;;5077339;28;20174;-83
2023/08/09 04:45:12;;;;;;;1.20;0.80;;;13.80;99.90;;;;;;5077473;28;20173;-83
2023/08/09 04:47:38;;;;;;;1.10;1.00;;;13.80;99.90;;;;;;5058724;28;20217;-83
2023/08/09 04:50:05;;;;;;;2.40;1.03;;;13.80;99.90;;;;;;5077301;28;20180;-82
2023/08/09 04:52:32;;;;;;;1.30;1.07;;;13.70;99.90;;;;;;5057956;28;20227;-81
2023/08/09 04:54:58;;;;;;;1.20;1.10;;;13.70;99.90;;;;;;5075907;28;20173;-83
2023/08/09 04:57:24;;;;;;;1.20;1.10;;;13.60;99.90;;;;;;5076953;28;20254;-82
2023/08/09 04:59:49;;;;;;;1.17;0.80;;;13.70;99.90;;;;;;5058954;28;20187;-83
2023/08/09 05:02:15;;;;;;;1.63;0.90;;;13.70;99.90;;;;;;5076099;28;20177;-84
2023/08/09 05:04:40;;;;;;;0.80;0.80;;;13.70;99.90;;;;;;5077047;28;20201;-82
2023/08/09 05:07:06;;;;;;;0.90;0.90;;;13.70;99.90;;;;;;5058526;28;20195;-83
2023/08/09 05:09:32;;;;;;;1.50;0.77;;;13.60;99.90;;;;;;5076651;28;20188;-83
2023/08/09 05:11:58;;;;;;;0.80;0.80;;;13.60;99.90;;;;;;5077313;28;20196;-82
2023/08/09 05:14:25;;;;;;;1.23;0.90;;;13.60;99.90;;;;;;5077352;28;20177;-84
2023/08/09 05:16:50;;;;;;;1.30;0.80;;;13.60;99.90;;;;;;5059243;28;20215;-83
2023/08/09 05:19:16;;;;;;;0.80;0.80;;;13.70;99.90;;;;;;5073065;28;20197;-82
2023/08/09 05:21:42;;;;;;;2.27;1.00;;;13.60;99.90;;;;;;5075352;28;20189;-83
2023/08/09 05:24:08;;;;;;;0.80;0.80;;;13.60;99.90;;;;;;5078742;28;20631;-83
2023/08/09 05:26:33;;;;;;;0.80;0.80;;;13.70;99.90;;;;;;5059689;28;20280;-85
2023/08/09 05:28:59;;;;;;;1.07;0.87;;;13.70;99.90;;;;;;5077810;28;20184;-85
2023/08/09 05:31:25;;;;;;;1.67;0.80;;;13.60;99.90;;;;;;5059674;28;20184;-83
2023/08/09 05:33:50;;;;;;;1.67;0.60;;;13.70;99.90;;;;;;5059976;28;20177;-85
2023/08/09 05:36:16;;;;;;;0.67;0.60;;;13.60;99.90;;;;;;5061475;28;20209;-85
2023/08/09 05:38:42;;;;;;;0.70;0.60;;;13.60;99.90;;;;;;5059204;28;20219;-85
2023/08/09 05:41:07;;;;;;;0.70;0.70;;;13.60;99.90;;;;;;5079539;28;20227;-84
2023/08/09 05:43:33;;;;;;;0.80;0.80;;;13.70;99.90;;;;;;5059526;28;20169;-85
2023/08/09 05:46:00;;;;;;;1.57;0.93;;;13.60;99.90;;;;;;5061771;28;20165;-84
2023/08/09 05:48:25;;;;;;;0.90;0.90;;;13.60;99.90;;;;;;5078271;28;20193;-85
2023/08/09 05:50:51;;;;;;;1.40;0.83;;;13.70;99.90;;;;;;5063281;28;20295;-84
2023/08/09 05:53:16;;;;;;;0.90;0.90;;;13.70;99.90;;;;;;5081219;28;20196;-84
2023/08/09 05:55:42;;;;;;;1.00;0.90;;;13.70;99.90;;;;;;5063443;28;20204;-84
2023/08/09 05:58:08;;;;;;;1.50;0.70;;;13.80;99.90;;;;;;5063886;28;20200;-82
2023/08/09 06:00:34;;;;;;;1.33;1.00;;;13.80;99.90;;;;;;5061149;28;20188;-84
2023/08/09 06:03:00;;;;;;;0.80;0.80;;;13.80;99.90;;;;;;5057615;28;20226;-84
2023/08/09 06:05:26;;;;;;;1.00;0.90;;;13.80;99.90;;;;;;5058775;28;20188;-82
2023/08/09 06:07:52;;;;;;;0.80;0.70;;;13.80;99.90;;;;;;5076443;28;20201;-83
2023/08/09 06:10:20;;;;;;;0.60;0.60;;;13.90;99.90;;;;;;5077490;28;20226;-84
2023/08/09 06:12:46;;;;;;;1.20;0.90;;;13.80;99.90;;;;;;5078649;28;20172;-83
2023/08/09 06:15:11;;;;;;;0.97;0.80;;;13.80;99.90;;;;;;5078716;28;20200;-83
2023/08/09 06:17:37;;;;;;;1.10;0.80;;;13.80;99.90;;;;;;5078639;28;20204;-82
2023/08/09 06:20:06;;;;;;;1.43;0.70;;;13.80;99.90;;;;;;5059620;28;20169;-80
2023/08/09 06:22:32;;;;;;;1.00;0.90;;;13.70;99.90;;;;;;5059092;28;20184;-82
2023/08/09 06:24:58;;;;;;;1.60;1.00;;;13.70;99.90;;;;;;5059252;28;20215;-82
2023/08/09 06:27:24;;;;;;;0.80;0.80;;;13.80;99.90;;;;;;5076911;28;20200;-83
2023/08/09 06:29:50;;;;;;;0.87;0.70;;;13.80;99.90;;;;;;5058907;28;20234;-82
2023/08/09 06:32:15;;;;;;;1.27;0.80;;;13.90;99.90;;;;;;5058660;28;20200;-83
2023/08/09 06:34:42;;;;;;;0.97;0.90;;;14.00;99.90;;;;;;5058668;28;20226;-83
2023/08/09 06:37:08;;;;;;;0.90;0.90;;;14.00;99.90;;;;;;5058340;28;20216;-83
2023/08/09 06:39:34;;;;;;;1.17;0.90;;;14.10;99.90;;;;;;5077178;28;20709;-82
2023/08/09 06:42:00;;;;;;;2.33;0.90;;;14.10;99.90;;;;;;5076546;28;20179;-83
2023/08/09 06:44:26;;;;;;;0.80;0.80;;;14.20;99.90;;;;;;5059125;28;20177;-82
2023/08/09 06:46:53;;;;;;;0.73;0.73;;;14.20;99.90;;;;;;5058349;28;20204;-83
2023/08/09 06:49:21;;;;;;;1.00;0.90;;;14.20;99.90;;;;;;5075764;28;20187;-82
2023/08/09 06:51:46;;;;;;;0.77;0.77;;;14.20;99.90;;;;;;5057021;28;20173;-83
2023/08/09 06:54:12;;;;;;;1.00;0.90;;;14.20;99.90;;;;;;5075856;28;20230;-83
2023/08/09 06:56:38;;;;;;;0.87;0.80;;;14.20;99.90;;;;;;5075678;28;20201;-82
2023/08/09 06:59:04;;;;;;;0.90;0.90;;;14.30;99.90;;;;;;5075932;28;20344;-83
2023/08/09 07:01:30;;;;;;;0.83;0.83;;;14.40;99.90;;;;;;5076297;28;20169;-83
2023/08/09 07:03:56;;;;;;;0.93;0.90;;;14.30;99.90;;;;;;5075871;28;20224;-83
2023/08/09 07:06:25;;;;;;;1.80;0.97;;;14.30;99.90;;;;;;5057922;28;20264;-82
2023/08/09 07:08:53;;;;;;;1.90;0.90;;;14.30;99.90;;;;;;5057716;28;20172;-83
2023/08/09 07:11:20;;;;;;;0.97;0.97;;;14.40;99.90;;;;;;5075387;28;20180;-82
2023/08/09 07:13:45;;;;;;;0.80;0.80;;;14.50;99.90;;;;;;5062729;28;20323;-84
2023/08/09 07:16:11;;;;;;;1.20;1.00;;;14.50;99.90;;;;;;5058292;28;20224;-82
2023/08/09 07:18:37;;;;;;;1.10;0.83;;;14.50;99.90;;;;;;5058463;28;20197;-84
2023/08/09 07:21:03;;;;;;;0.80;0.80;;;14.60;99.90;;;;;;5079629;28;20238;-83
2023/08/09 07:23:28;;;;;;;1.17;1.07;;;14.50;99.90;;;;;;5076270;28;20168;-83
2023/08/09 07:25:54;;;;;;;2.30;0.90;;;14.50;99.90;;;;;;5076037;28;20553;-83
2023/08/09 07:28:19;;;;;;;0.87;0.80;;;14.50;99.90;;;;;;5076549;28;20695;-82
2023/08/09 07:30:45;;;;;;;0.90;0.90;;;14.50;99.90;;;;;;5058877;28;20188;-83
2023/08/09 07:33:11;;;;;;;10.23;1.17;;;14.70;99.90;;;;;;5076996;28;20263;-84
2023/08/09 07:35:36;;;;;;;1.40;1.00;;;14.90;99.90;;;;;;5076639;28;20271;-84
2023/08/09 07:38:02;;;;;;;1.40;0.90;;;15.10;99.90;;;;;;5059097;28;20276;-84
2023/08/09 07:40:28;;;;;;;1.20;1.00;;;15.10;99.90;;;;;;5061051;28;20177;-84
2023/08/09 07:42:55;;;;;;;0.80;0.80;;;15.10;99.90;;;;;;5078656;28;20181;-84
2023/08/09 07:45:21;;;;;;;1.00;0.90;;;15.20;99.90;;;;;;5078803;28;20183;-84
2023/08/09 07:47:46;;;;;;;1.10;1.00;;;15.20;99.90;;;;;;5061558;28;20287;-84
2023/08/09 07:50:12;;;;;;;1.20;1.10;;;15.30;99.90;;;;;;5061002;28;20176;-85
2023/08/09 07:52:38;;;;;;;1.43;0.97;;;15.30;99.90;;;;;;5060294;28;20177;-87
2023/08/09 07:55:05;;;;;;;1.50;0.93;;;15.40;99.90;;;;;;5077169;28;20176;-84
2023/08/09 07:57:30;;;;;;;1.40;0.90;;;15.40;99.90;;;;;;5078136;28;20192;-85
2023/08/09 07:59:56;;;;;;;1.07;1.00;;;15.50;99.90;;;;;;5060783;28;20176;-84
2023/08/09 08:02:22;;;;;;;1.37;1.07;;;15.70;99.90;;;;;;5060446;28;20173;-85
2023/08/09 08:04:47;;;;;;;1.10;1.00;;;15.80;99.90;;;;;;5078758;28;20169;-83
2023/08/09 08:07:14;;;;;;;1.23;1.10;;;15.90;99.90;;;;;;5061293;28;20189;-84
2023/08/09 08:09:41;;;;;;;1.00;1.00;;;16.00;99.90;;;;;;5079056;28;20597;-84
2023/08/09 08:12:11;;;;;;;1.10;1.00;;;16.20;99.90;;;;;;5060888;28;20173;-84
2023/08/09 08:14:37;;;;;;;1.20;1.10;;;16.20;99.90;;;;;;5078648;28;20556;-85
2023/08/09 08:17:03;;;;;;;1.30;1.10;;;16.30;59.30;;;;;;5060251;28;20304;-84
2023/08/09 08:19:29;;;;;;;1.27;1.17;;;16.40;99.90;;;;;;5060553;28;20265;-86
2023/08/09 08:21:55;;;;;;;2.10;1.13;;;16.60;99.90;;;;;;5078288;28;20276;-84
2023/08/09 08:24:20;;;;;;;2.20;1.33;;;16.70;1.00;;;;;;5078079;28;20177;-84
2023/08/09 08:26:46;;;;;;;1.20;1.07;;;16.70;34.30;;;;;;5077798;28;20536;-81
2023/08/09 08:29:12;;;;;;;1.17;1.07;;;16.90;4.30;;;;;;5077857;28;20183;-84
2023/08/09 08:31:38;;;;;;;1.10;1.00;;;16.90;1.00;;;;;;5077677;28;20184;-85
2023/08/09 08:34:05;;;;;;;1.13;1.03;;;16.90;1.00;;;;;;5078769;28;20180;-84
2023/08/09 08:36:30;;;;;;;1.10;1.00;;;16.90;1.00;;;;;;5059458;28;20205;-85
2023/08/09 08:38:56;;;;;;;2.23;1.20;;;16.80;1.00;;;;;;5059070;28;20177;-84
2023/08/09 08:41:22;;;;;;;1.30;1.20;;;16.60;1.00;;;;;;5059496;28;20184;-84
2023/08/09 08:43:49;;;;;;;1.13;1.03;;;16.60;1.00;;;;;;5077714;28;20700;-84
2023/08/09 08:46:16;;;;;;;1.10;1.00;;;16.60;1.00;;;;;;5077883;28;20199;-83
2023/08/09 08:48:47;;;;;;;1.10;1.00;;;16.80;1.00;;;;;;5059230;28;20220;-85
2023/08/09 08:51:13;;;;;;;1.10;1.00;;;16.90;1.00;;;;;;5077127;28;20172;-79
2023/08/09 08:53:39;;;;;;;1.53;1.10;;;17.30;1.00;;;;;;5075551;28;20298;-83
2023/08/09 08:56:05;;;;;;;2.40;0.90;;;17.40;1.00;;;;;;5075567;28;20349;-84
2023/08/09 08:58:31;;;;;;;1.13;1.03;;;17.60;1.00;;;;;;5058306;28;20608;-84
2023/08/09 09:00:57;;;;;;;0.97;0.90;;;17.70;99.90;;;;;;5076581;28;20258;-84
2023/08/09 09:03:23;;;;;;;1.67;1.10;;;17.80;1.00;;;;;;5076084;28;20206;-84
2023/08/09 09:05:48;;;;;;;1.20;1.00;;;17.70;25.90;;;;;;5076106;28;20181;-84
2023/08/09 09:08:14;;;;;;;0.97;0.90;;;17.80;99.90;;;;;;5058649;28;20239;-84
2023/08/09 09:10:45;;;;;;;1.97;1.30;;;17.70;1.00;;;;;;5059025;28;20176;-82
2023/08/09 09:13:23;;;;;;;1.10;1.00;;;17.80;1.00;;;;;;5076490;28;20192;-84
2023/08/09 09:15:49;;;;;;;1.40;1.10;;;18.00;99.90;;;;;;5077386;28;20211;-85
2023/08/09 09:18:15;;;;;;;2.23;1.20;;;18.10;1.00;;;;;;5076531;28;20223;-83
2023/08/09 09:20:40;;;;;;;1.67;1.00;;;18.30;1.00;;;;;;5059174;28;20275;-84
2023/08/09 09:23:07;;;;;;;1.17;1.03;;;18.30;99.90;;;;;;5077247;28;20191;-84
2023/08/09 09:25:33;;;;;;;1.93;1.10;;;18.10;1.00;;;;;;5077458;28;20190;-83
2023/08/09 09:27:59;;;;;;;2.30;1.20;;;18.20;99.90;;;;;;5062862;28;20205;-84
2023/08/09 09:30:29;;;;;;;1.40;1.00;;;18.40;1.00;;;;;;5063888;28;20184;-84
2023/08/09 09:32:57;;;;;;;1.40;1.00;;;18.40;99.90;;;;;;5064159;28;20211;-85
2023/08/09 09:35:25;;;;;;;1.57;1.10;;;18.60;1.00;;;;;;5063562;28;20592;-85
2023/08/09 09:37:52;;;;;;;0.83;0.83;;;18.70;99.90;;;;;;5063526;28;20189;-83
2023/08/09 09:40:27;;;;;;;1.73;1.10;;;18.90;99.90;;;;;;5065005;28;20558;-83
2023/08/09 09:42:54;;;;;;;1.43;1.00;;;19.20;99.90;;;;;;5083122;28;20172;-84
2023/08/09 09:45:24;;;;;;;1.03;0.90;;;19.20;1.00;;;;;;5084100;28;20290;-83
2023/08/09 09:47:52;;;;;;;2.03;1.10;;;19.20;1.00;;;;;;5082742;28;20188;-80
2023/08/09 09:50:22;;;;;;;1.10;0.90;;;19.40;1.00;;;;;;5062598;28;20187;-83
2023/08/09 09:52:49;;;;;;;0.90;0.80;;;19.40;1.00;;;;;;5078533;28;20205;-84
2023/08/09 09:55:20;;;;;;;1.87;1.10;;;19.50;1.00;;;;;;5059697;28;20659;-82
2023/08/09 09:57:47;;;;;;;1.33;0.97;;;19.80;1.00;;;;;;5059992;28;20224;-83
2023/08/09 10:00:15;;;;;;;1.13;1.00;;;19.80;99.90;;;;;;5078616;28;20177;-82
2023/08/09 10:02:48;;;;;;;0.93;0.83;;;20.00;99.90;;;;;;5078473;28;20180;-85
2023/08/09 10:05:20;;;;;;;1.90;1.00;;;20.10;1.00;;;;;;5060393;28;20196;-84
2023/08/09 10:07:47;;;;;;;1.57;0.90;;;20.10;99.90;;;;;;5078614;28;20197;-83
2023/08/09 10:10:13;;;;;;;2.00;1.00;;;19.90;1.00;;;;;;5077657;28;20183;-83
2023/08/09 10:12:52;;;;;;;2.35;0.90;;;19.70;99.90;;;;;;5079057;28;20197;-83
2023/08/09 10:15:23;;;;;;;1.23;1.00;;;19.40;1.00;;;;;;5057121;28;20219;-84
2023/08/09 10:17:52;;;;;;;1.00;0.90;;;19.50;24.90;;;;;;5078106;28;20279;-83
2023/08/09 10:20:19;;;;;;;2.65;1.15;;;19.80;1.00;;;;;;5077995;28;20173;-84
2023/08/09 10:22:46;;;;;;;1.20;0.93;;;20.20;99.90;;;;;;5060440;28;20193;-84
2023/08/09 10:25:12;;;;;;;1.00;0.90;;;20.40;99.90;;;;;;5060283;28;20645;-84
2023/08/09 10:27:53;;;;;;;1.65;1.10;;;20.70;1.00;;;;;;5060509;28;20193;-83
2023/08/09 10:30:28;;;;;;;1.40;1.30;;;20.80;99.90;;;;;;5058997;28;20192;-83
2023/08/09 10:32:56;;;;;;;1.52;1.10;;;20.80;99.90;;;;;;5060123;28;20198;-84
2023/08/09 10:35:51;;;;;;;1.75;1.10;;;20.60;99.90;;;;;;5059873;28;20236;-83
2023/08/09 10:38:19;;;;;;;0.98;0.77;;;20.90;99.90;;;;;;5059942;28;20314;-85
2023/08/09 10:40:53;;;;;;;1.17;1.00;;;20.90;99.90;;;;;;5079300;28;20177;-85
2023/08/09 10:43:21;;;;;;;1.13;1.02;;;20.70;1.00;;;;;;5078433;28;20176;-83
2023/08/09 10:45:49;;;;;;;0.90;0.90;;;20.30;1.00;;;;;;5078867;28;20180;-83
2023/08/09 10:48:23;;;;;;;1.20;1.10;;;19.90;99.90;;;;;;5060772;28;20606;-84
2023/08/09 10:51:02;;;;;;;1.10;1.00;;;19.50;99.90;;;;;;5060504;28;20236;-84
2023/08/09 10:53:28;;;;;;;1.08;0.90;;;20.00;1.00;;;;;;5078898;28;20169;-84
2023/08/09 10:55:57;;;;;;;1.15;1.05;;;20.20;1.00;;;;;;5060842;28;20232;-85
2023/08/09 10:58:29;;;;;;;1.08;0.98;;;19.90;3.30;;;;;;5060554;28;20318;-84
2023/08/09 11:00:55;;;;;;;1.10;1.00;;;20.00;99.90;;;;;;5078839;28;20237;-84
2023/08/09 11:03:22;;;;;;;1.23;1.00;;;20.10;99.90;;;;;;5060276;28;20166;-85
2023/08/09 11:05:47;;;;;;;3.05;1.17;;;20.00;88.10;;;;;;5060541;28;20177;-84
2023/08/09 11:08:17;;;;;;;1.25;1.00;;;19.90;99.90;;;;;;5059668;28;20203;-84
2023/08/09 11:10:43;;;;;;;1.67;0.98;;;19.90;90.80;;;;;;5060032;28;20188;-81
2023/08/09 11:13:15;;;;;;;1.35;0.95;;;19.70;99.90;;;;;;5060474;28;20177;-83
2023/08/09 11:15:50;;;;;;;2.08;1.10;;;19.70;99.90;;;;;;5078923;28;20201;-84
2023/08/09 11:18:16;;;;;;;0.95;0.90;;;19.60;99.90;;;;;;5059586;28;20211;-83
2023/08/09 11:20:41;;;;;;;1.08;1.00;;;19.90;99.90;;;;;;5060381;28;20177;-83
2023/08/09 11:23:07;;;;;;;1.00;0.90;;;20.10;1.00;;;;;;5078205;28;20165;-84
2023/08/09 11:25:33;;;;;;;1.30;1.00;;;20.40;1.00;;;;;;5077620;28;20176;-83
2023/08/09 11:28:02;;;;;;;0.90;0.90;;;20.40;1.00;;;;;;5076590;28;20184;-85
2023/08/09 11:30:32;;;;;;;0.90;0.80;;;20.60;99.90;;;;;;5058588;28;20173;-83
2023/08/09 11:33:02;;;;;;;1.10;0.95;;;20.70;1.00;;;;;;5077445;28;20180;-84
2023/08/09 11:35:39;;;;;;;0.80;0.80;;;21.00;1.00;;;;;;5060859;28;20203;-83
2023/08/09 11:38:09;;;;;;;0.70;0.70;;;21.40;1.00;;;;;;5061665;28;20192;-84
2023/08/09 11:40:49;;;;;;;0.90;0.90;;;21.30;1.00;;;;;;5061700;28;20243;-85
2023/08/09 11:43:17;;;;;;;1.30;0.85;;;21.00;99.90;;;;;;5061737;28;20184;-83
2023/08/09 11:45:54;;;;;;;2.13;1.00;;;21.20;1.00;;;;;;5061166;28;20165;-83
2023/08/09 11:48:27;;;;;;;1.20;1.10;;;21.20;92.30;;;;;;5061822;28;20218;-84
2023/08/09 11:51:06;;;;;;;1.45;0.98;;;21.20;1.00;;;;;;5059927;28;20180;-83
2023/08/09 11:53:33;;;;;;;1.15;0.95;;;21.50;99.90;;;;;;5059149;28;20245;-83
2023/08/09 11:56:00;;;;;;;1.05;0.90;;;21.50;1.00;;;;;;5059456;28;20205;-84
2023/08/09 11:58:25;;;;;;;2.53;0.98;;;21.80;99.90;;;;;;5078938;28;20189;-83
2023/08/09 12:00:51;;;;;;;0.80;0.80;;;21.90;1.00;;;;;;5077524;28;20172;-83
2023/08/09 12:03:23;;;;;;;1.20;0.90;;;22.20;1.00;;;;;;5060860;28;20232;-83
2023/08/09 12:05:56;;;;;;;1.48;0.90;;;22.20;1.00;;;;;;5078619;28;20201;-84
2023/08/09 12:08:35;;;;;;;1.25;0.90;;;21.90;1.00;;;;;;5058792;28;20201;-83
2023/08/09 12:11:01;;;;;;;0.90;0.90;;;22.30;99.90;;;;;;5079144;28;20236;-83
2023/08/09 12:13:27;;;;;;;2.10;1.13;;;22.60;1.00;;;;;;5061743;28;20188;-83
2023/08/09 12:15:53;;;;;;;1.17;1.00;;;22.60;1.00;;;;;;5060817;28;20201;-83
2023/08/09 12:18:19;;;;;;;1.70;0.93;;;22.20;1.00;;;;;;5060640;28;20185;-84
2023/08/09 12:20:46;;;;;;;1.33;0.90;;;22.20;1.00;;;;;;5058874;28;20181;-84
2023/08/09 12:23:12;;;;;;;2.58;1.00;;;21.90;13.60;;;;;;5078603;28;20686;-82
2023/08/09 12:25:38;;;;;;;1.02;0.82;;;21.80;1.00;;;;;;5083155;28;20173;-84
2023/08/09 12:28:04;;;;;;;1.33;1.00;;;22.10;99.90;;;;;;5083589;28;20305;-83
2023/08/09 12:30:30;;;;;;;2.00;1.27;;;22.20;1.00;;;;;;5064331;28;20200;-83
2023/08/09 12:32:55;;;;;;;1.10;1.00;;;22.20;1.00;;;;;;5062725;28;20234;-84
2023/08/09 12:35:21;;;;;;;0.90;0.90;;;22.30;1.00;;;;;;5062885;28;20196;-83
2023/08/09 12:37:49;;;;;;;1.27;0.90;;;22.60;1.00;;;;;;5063173;28;20607;-83
2023/08/09 12:40:15;;;;;;;3.55;1.05;;;22.50;1.00;;;;;;5062298;28;20657;-83
2023/08/09 12:42:41;;;;;;;1.10;1.00;;;22.00;1.00;;;;;;5081589;28;20169;-83
2023/08/09 12:45:08;;;;;;;1.00;0.90;;;21.60;99.90;;;;;;5062696;28;20176;-83
2023/08/09 12:47:34;;;;;;;1.08;0.93;;;21.60;99.90;;;;;;5063188;28;20189;-83
2023/08/09 12:50:00;;;;;;;1.10;1.00;;;21.50;99.90;;;;;;5081428;28;20525;-83